Airfield :
LOGIN :

Register | Disclaimer

   EN    FR    IT 

 










Legend :    VFR   Marginal VFR   IFR   Intensive IFR   Very Intensive IFR
Visi :
Ceiling :
>= 8 km
>= 3000ft
5 to 8 km
1000 to 3000 ft
1500m to 5 km
500 to 1000 ft
800 to 1500m
200 to 500 ft
< 800m
< 200 ft
Symbols :   Thunderstorms  Fog  Heavy snow  Heavy precipitations  Wind > 20 kt
SIGMETs :     Misc.  Thunderstorms  Icing  Turbulence  Mountain Waves  Volcanic Ashes






- Airport Elevation : 287 ft


LFRL - Lanveoc Poulmic

CURRENT METAR :
  • 081230Z AUTO 01005KT 320V050 CAVOK 20/10 Q1023 NOSIG

EXPIRED METARs :
  • 081200Z AUTO 02007KT CAVOK 19/11 Q1023 NOSIG
  • 081130Z AUTO 06003KT 010V120 CAVOK 18/11 Q1023 TEMPO SHRA
  • 081100Z AUTO 07005KT 030V100 CAVOK 17/11 Q1023 TEMPO SHRA
  • 081030Z AUTO 07006KT 040V100 CAVOK 16/12 Q1023 TEMPO SHRA
  • 081000Z AUTO 06004KT 020V090 9000 NSC 15/13 Q1024 TEMPO SHRA

TAF TAF LFRL
Valid from the 08 at 12:00 until the 09 at 12:00 UTC


081100Z 0812/0912 VRB05KT CAVOK
BECMG 0822/0824 3000 BR
PROB40
TEMPO 0902/0908 0300 FG VV///



MET'MAP, your aeronautical weather chart ! - Copyright ORBIFLY December 2007 - Disclaimer

ORBIFLY MET'MAP TEAM :

Programming & Development : Alexandra Zaïnal
Concept & original design : Baudouin d'Aumeries
Assistance for programming : Marc-Olivier Méhu
Technical & hardware support : Manuel Goepfert

Contact : metmap@orbifly.com




SOURCES & CREDITS :

   NOAA